Time;durP1;ratioP1;P1;durP2;ratioP2;P2;SDS_P1;SDS_P2;PMS_P1;PMS_P2;Temp;Humidity;BMP_temperature;BMP_pressure;BME280_temperature;BME280_humidity;BME280_pressure;Samples;Min_cycle;Max_cycle;Signal;HPM_P1;HPM_P2
2022/06/06 00:01:21;;;;;;;57.33;34.15;;;;;;;15.80;87.31;101165.72;3578326;40;20048;-63
2022/06/06 00:03:49;;;;;;;55.58;33.17;;;;;;;15.79;86.93;101169.41;3580932;40;20048;-64
2022/06/06 00:06:20;;;;;;;61.72;35.13;;;;;;;15.77;86.92;101165.97;3578424;40;20049;-64
2022/06/06 00:08:48;;;;;;;59.63;33.50;;;;;;;15.74;87.54;101175.19;3580394;40;20056;-63
2022/06/06 00:11:15;;;;;;;54.22;33.25;;;;;;;15.73;87.26;101167.16;3581456;40;20044;-64
2022/06/06 00:13:47;;;;;;;55.65;33.30;;;;;;;15.74;87.31;101175.19;3578036;40;20394;-63
2022/06/06 00:16:13;;;;;;;57.38;33.63;;;;;;;15.72;87.10;101168.16;3578218;40;20049;-63
2022/06/06 00:18:39;;;;;;;53.65;33.22;;;;;;;15.75;86.82;101173.34;3580065;40;20070;-62
2022/06/06 00:21:10;;;;;;;58.72;33.22;;;;;;;15.74;86.85;101169.78;3580995;39;20460;-64
2022/06/06 00:23:36;;;;;;;52.58;32.88;;;;;;;15.75;86.39;101159.78;3579527;40;20049;-64
2022/06/06 00:26:12;;;;;;;56.42;32.08;;;;;;;15.75;86.76;101165.22;3580112;40;20388;-62
2022/06/06 00:28:44;;;;;;;57.38;32.03;;;;;;;15.78;86.47;101164.97;3578801;40;20094;-64
2022/06/06 00:36:57;;;;;;;59.38;31.83;;;;;;;15.78;85.87;101154.97;3583563;40;20121;-64
2022/06/06 00:39:24;;;;;;;53.67;31.20;;;;;;;15.76;85.39;101143.41;3576808;40;20312;-63
2022/06/06 00:41:55;;;;;;;50.95;31.52;;;;;;;15.78;85.42;101144.16;3581299;40;20052;-64
2022/06/06 00:44:30;;;;;;;54.28;31.10;;;;;;;15.81;85.50;101143.03;3579314;40;20058;-64
2022/06/06 00:47:28;;;;;;;52.15;31.80;;;;;;;15.84;86.04;101140.09;3576219;40;20101;-64
2022/06/06 00:50:10;;;;;;;52.53;30.35;;;;;;;15.86;85.96;101143.56;3578354;40;20410;-64
2022/06/06 00:52:41;;;;;;;53.88;31.95;;;;;;;15.86;84.80;101142.66;3582025;40;20059;-64
2022/06/06 00:55:25;;;;;;;51.70;31.90;;;;;;;15.86;85.42;101138.13;3578050;40;20060;-64
2022/06/06 00:58:00;;;;;;;;;;;;;;;15.86;85.18;101127.28;3578264;40;20053;-64
2022/06/06 01:00:27;;;;;;;54.17;32.67;;;;;;;15.87;85.38;101139.84;3576312;40;19948;-64
2022/06/06 01:02:59;;;;;;;60.97;36.53;;;;;;;15.87;85.27;101134.44;3580903;40;20044;-65
2022/06/06 01:05:26;;;;;;;64.10;37.60;;;;;;;15.82;84.84;101130.34;3577838;40;20061;-64
2022/06/06 01:07:52;;;;;;;69.88;39.22;;;;;;;15.85;85.49;101144.53;3579476;40;20572;-65
2022/06/06 01:10:19;;;;;;;64.68;38.38;;;;;;;15.81;85.12;101137.63;3582385;40;20054;-64
2022/06/06 01:12:51;;;;;;;68.55;41.03;;;;;;;15.82;85.93;101142.03;3579503;40;20048;-65
2022/06/06 01:15:23;;;;;;;66.32;39.78;;;;;;;15.77;85.59;101134.28;3577290;40;20376;-64
2022/06/06 01:18:05;;;;;;;68.40;41.08;;;;;;;15.83;86.00;101137.53;3578957;40;20061;-65
2022/06/06 01:21:01;;;;;;;67.55;41.17;;;;;;;15.84;86.14;101140.09;3579981;40;20059;-65
2022/06/06 01:23:51;;;;;;;69.03;41.50;;;;;;;15.83;86.34;101127.53;3579829;40;20056;-64
2022/06/06 01:26:53;;;;;;;70.57;41.45;;;;;;;15.84;85.93;101131.97;3582103;40;20048;-64
2022/06/06 01:29:28;;;;;;;71.57;42.47;;;;;;;15.85;86.40;101140.94;3580347;39;20056;-65
2022/06/06 01:32:06;;;;;;;67.85;40.10;;;;;;;15.84;85.99;101148.22;3578785;40;20049;-64
2022/06/06 01:34:38;;;;;;;66.55;41.90;;;;;;;15.83;85.67;101146.50;3582446;40;20056;-64
2022/06/06 01:37:23;;;;;;;64.97;39.33;;;;;;;15.86;86.53;101138.13;3580878;40;20062;-65
2022/06/06 01:39:49;;;;;;;63.97;41.33;;;;;;;15.85;86.52;101143.66;3578027;40;20065;-64
2022/06/06 01:42:31;;;;;;;61.90;41.28;;;;;;;15.78;86.48;101129.72;3577828;40;20329;-64
2022/06/06 01:45:45;;;;;;;68.40;40.58;;;;;;;15.90;86.71;101141.47;3579044;40;20672;-65
2022/06/06 01:48:19;;;;;;;67.28;39.85;;;;;;;15.90;87.22;101139.59;3577966;40;20290;-64
2022/06/06 01:50:45;;;;;;;58.75;37.45;;;;;;;15.87;86.90;101141.72;3580924;40;20953;-63
2022/06/06 01:53:20;;;;;;;62.13;38.25;;;;;;;15.89;86.91;101142.44;3575035;40;20044;-64
2022/06/06 01:55:50;;;;;;;58.90;36.00;;;;;;;15.88;87.17;101146.13;3579327;40;20060;-64
2022/06/06 01:58:25;;;;;;;53.53;33.30;;;;;;;15.85;86.63;101133.69;3579090;40;20052;-64
2022/06/06 02:00:51;;;;;;;50.28;31.17;;;;;;;15.79;86.88;101126.03;3581436;40;20056;-64
2022/06/06 02:03:18;;;;;;;51.95;31.70;;;;;;;15.89;87.17;101127.06;3579404;40;20410;-64
2022/06/06 02:05:44;;;;;;;50.90;31.05;;;;;;;15.92;86.33;101131.34;3578517;40;20059;-64
2022/06/06 02:08:12;;;;;;;52.20;29.77;;;;;;;15.92;85.90;101117.78;3582977;40;20044;-63
2022/06/06 02:10:38;;;;;;;47.58;29.48;;;;;;;15.85;85.98;101103.84;3576637;40;20060;-64
2022/06/06 02:13:05;;;;;;;48.45;29.55;;;;;;;15.94;86.03;101096.84;3575523;40;20087;-64
2022/06/06 02:15:31;;;;;;;49.28;29.20;;;;;;;15.94;85.89;101124.81;3577927;40;20139;-64
2022/06/06 02:17:58;;;;;;;44.55;28.17;;;;;;;15.76;85.93;101081.06;3583485;40;20572;-64
2022/06/06 02:20:29;;;;;;;45.40;28.48;;;;;;;15.92;85.56;101106.94;3579968;39;20055;-63
2022/06/06 02:22:56;;;;;;;46.95;28.13;;;;;;;15.95;85.98;101115.72;3578990;40;20397;-64
2022/06/06 02:25:23;;;;;;;42.38;27.30;;;;;;;15.93;85.83;101117.69;3580821;40;20059;-65
2022/06/06 02:27:50;;;;;;;46.92;27.42;;;;;;;15.94;85.57;101118.53;3580723;40;20076;-65
2022/06/06 02:30:21;;;;;;;41.90;28.08;;;;;;;15.93;85.24;101123.09;3577140;40;20044;-65
2022/06/06 02:32:48;;;;;;;45.33;29.25;;;;;;;15.89;85.32;101109.91;3578384;40;20059;-65
2022/06/06 02:35:19;;;;;;;48.95;30.65;;;;;;;15.97;85.32;101127.28;3579619;40;20096;-64
2022/06/06 02:37:47;;;;;;;42.90;28.10;;;;;;;15.94;85.41;101127.53;3575644;40;20056;-64
2022/06/06 02:40:16;;;;;;;47.25;29.92;;;;;;;15.94;85.13;101123.97;3575706;40;20048;-65
2022/06/06 02:42:43;;;;;;;40.63;27.25;;;;;;;15.90;85.28;101112.50;3582169;40;20052;-64
2022/06/06 02:45:10;;;;;;;46.88;28.80;;;;;;;15.94;85.17;101110.41;3581836;40;20054;-65
2022/06/06 02:47:37;;;;;;;43.42;27.15;;;;;;;15.92;85.36;101109.66;3581245;40;20063;-63
2022/06/06 02:50:07;;;;;;;45.88;26.17;;;;;;;15.54;84.74;101053.94;3581700;40;20410;-64
2022/06/06 02:52:33;;;;;;;44.33;28.15;;;;;;;15.86;85.43;101111.03;3581456;40;20064;-64
2022/06/06 02:55:01;;;;;;;45.60;28.08;;;;;;;15.88;85.63;101119.88;3582337;40;20117;-64
2022/06/06 02:57:27;;;;;;;48.65;29.88;;;;;;;15.88;84.91;101121.72;3580610;40;20394;-64
2022/06/06 03:00:00;;;;;;;45.33;28.02;;;;;;;15.93;84.58;101119.53;3582133;40;20052;-64
2022/06/06 03:02:26;;;;;;;50.90;29.80;;;;;;;15.85;84.00;101122.84;3580250;40;20331;-65
2022/06/06 03:04:52;;;;;;;48.72;29.77;;;;;;;15.82;84.46;101114.94;3581442;40;20060;-65
2022/06/06 03:07:55;;;;;;;51.65;31.35;;;;;;;15.83;83.95;101115.84;3579829;40;20048;-65
2022/06/06 03:11:17;;;;;;;46.92;30.05;;;;;;;15.76;83.57;101116.31;3581930;39;20049;-65
2022/06/06 03:14:14;;;;;;;46.63;29.42;;;;;;;15.76;84.06;101118.13;3579264;40;20391;-64
2022/06/06 03:23:23;;;;;;;44.90;28.52;;;;;;;15.66;83.04;101125.25;3580655;40;20134;-65
2022/06/06 03:26:07;;;;;;;45.30;28.50;;;;;;;15.65;82.31;101123.53;3581711;40;20106;-65
2022/06/06 03:29:20;;;;;;;45.55;28.27;;;;;;;15.61;82.35;101127.47;3581145;40;20380;-65
2022/06/06 03:32:36;;;;;;;43.95;26.67;;;;;;;15.59;82.73;101135.69;3577792;40;20059;-64
2022/06/06 03:35:33;;;;;;;41.42;26.58;;;;;;;15.58;83.01;101133.97;3583214;40;20052;-64
2022/06/06 03:38:32;;;;;;;44.22;27.33;;;;;;;15.55;81.57;101123.38;3575512;40;20396;-64
2022/06/06 03:41:14;;;;;;;38.47;26.58;;;;;;;15.56;81.35;101122.38;3575862;40;20068;-64
2022/06/06 03:43:55;;;;;;;38.53;24.55;;;;;;;15.53;81.67;101128.91;3581975;40;20126;-64
2022/06/06 03:46:58;;;;;;;36.83;23.98;;;;;;;15.46;81.52;101126.81;3575720;40;20063;-64
2022/06/06 03:49:56;;;;;;;36.75;23.77;;;;;;;15.44;81.47;101140.44;3576025;40;20057;-64
2022/06/06 03:52:35;;;;;;;35.75;22.98;;;;;;;15.43;81.02;101141.44;3578639;40;20056;-64
2022/06/06 03:55:25;;;;;;;34.85;22.92;;;;;;;15.38;81.54;101132.81;3579034;40;20122;-64
2022/06/06 03:57:56;;;;;;;37.90;21.73;;;;;;;15.32;81.23;101133.31;3577210;40;20059;-64
2022/06/06 04:00:23;;;;;;;32.03;21.73;;;;;;;15.27;80.89;101138.19;3579229;40;20056;-62
2022/06/06 04:02:54;;;;;;;36.03;21.85;;;;;;;15.23;82.04;101134.00;3577342;40;20144;-62
2022/06/06 04:05:22;;;;;;;32.58;21.83;;;;;;;15.14;81.68;101134.69;3578239;40;20768;-63
2022/06/06 04:07:48;;;;;;;32.90;20.17;;;;;;;15.11;81.42;101137.63;3579718;40;20118;-62
2022/06/06 04:10:16;;;;;;;33.78;20.95;;;;;;;14.94;81.81;101118.13;3577782;40;20364;-64
2022/06/06 04:12:56;;;;;;;30.08;20.27;;;;;;;15.02;81.11;101144.59;3576554;40;20083;-62
2022/06/06 04:15:37;;;;;;;32.40;19.50;;;;;;;14.96;81.27;101150.47;3583226;39;20067;-62
2022/06/06 04:18:26;;;;;;;30.27;19.95;;;;;;;14.91;81.06;101150.84;3578118;40;20057;-62
2022/06/06 04:21:35;;;;;;;30.35;19.77;;;;;;;14.85;81.40;101151.28;3577896;40;20054;-61
2022/06/06 04:24:44;;;;;;;28.63;19.42;;;;;;;14.87;81.75;101157.44;3577537;40;20343;-62
2022/06/06 04:27:28;;;;;;;28.45;18.58;;;;;;;14.90;81.50;101153.66;3573244;40;20407;-62
2022/06/06 04:30:09;;;;;;;29.67;18.55;;;;;;;14.93;81.67;101156.13;3576411;40;20068;-62
2022/06/06 04:33:07;;;;;;;27.75;18.00;;;;;;;14.96;80.80;101164.88;3576406;40;20068;-62
2022/06/06 04:36:16;;;;;;;28.90;17.40;;;;;;;14.83;79.44;101148.69;3585518;39;20117;-63
2022/06/06 04:39:05;;;;;;;24.05;16.23;;;;;;;14.92;79.66;101168.81;3578990;40;20072;-64
2022/06/06 04:42:05;;;;;;;24.10;16.77;;;;;;;14.92;79.27;101151.69;3579060;40;20362;-63
2022/06/06 04:44:57;;;;;;;25.95;16.83;;;;;;;14.96;79.14;101164.00;3580765;40;20068;-63
2022/06/06 04:47:36;;;;;;;25.85;17.33;;;;;;;14.96;78.27;101159.47;3579992;40;20414;-62
2022/06/06 04:50:07;;;;;;;22.45;16.73;;;;;;;14.88;77.97;101151.06;3578964;40;20053;-62
2022/06/06 04:52:37;;;;;;;22.88;16.23;;;;;;;14.96;77.94;101159.47;3582914;40;20056;-61
2022/06/06 04:55:07;;;;;;;26.52;17.77;;;;;;;14.99;78.23;101164.66;3581787;40;20413;-61
2022/06/06 04:57:36;;;;;;;25.58;17.35;;;;;;;14.96;76.77;101170.28;3580002;40;20059;-62
2022/06/06 05:00:06;;;;;;;24.73;18.15;;;;;;;14.96;77.69;101164.00;3581204;40;20060;-61
2022/06/06 05:02:35;;;;;;;25.13;18.65;;;;;;;14.88;76.71;101170.00;3580390;40;20080;-62
2022/06/06 05:05:04;;;;;;;22.83;18.52;;;;;;;14.84;76.40;101158.56;3581013;40;20063;-61
2022/06/06 05:08:04;;;;;;;26.20;19.05;;;;;;;14.83;76.05;101159.50;3577866;40;20205;-64
2022/06/06 05:11:27;;;;;;;24.10;19.02;;;;;;;14.73;76.20;101157.63;3580064;40;20045;-62
2022/06/06 05:14:35;;;;;;;22.42;19.23;;;;;;;14.77;75.91;101164.53;3587567;40;20067;-62
2022/06/06 05:17:17;;;;;;;21.75;18.38;;;;;;;14.77;75.97;101175.34;3582008;40;20118;-62
2022/06/06 05:19:57;;;;;;;23.65;19.38;;;;;;;14.76;75.92;101165.50;3580594;40;20055;-62
2022/06/06 05:22:41;;;;;;;22.30;18.77;;;;;;;14.75;75.99;101182.72;3579863;40;20280;-62
2022/06/06 05:25:26;;;;;;;20.27;17.77;;;;;;;14.76;75.97;101181.75;3581711;40;20055;-61
2022/06/06 05:28:19;;;;;;;22.25;17.05;;;;;;;14.74;75.87;101172.88;3581380;40;20044;-62
2022/06/06 05:31:14;;;;;;;22.52;18.10;;;;;;;14.77;76.37;101168.09;3578789;40;20052;-62
2022/06/06 05:34:14;;;;;;;24.92;18.42;;;;;;;14.79;76.25;101174.25;3576760;40;20050;-62
2022/06/06 05:37:04;;;;;;;21.38;17.88;;;;;;;14.89;75.78;101174.44;3579129;40;20052;-62
2022/06/06 05:39:50;;;;;;;22.48;17.70;;;;;;;15.01;75.07;101170.81;3579929;40;20056;-62
2022/06/06 05:42:44;;;;;;;20.88;16.38;;;;;;;15.12;74.71;101174.56;3581199;40;20387;-63
2022/06/06 05:45:19;;;;;;;;;;;;;;;15.13;74.22;101181.69;3568120;40;20063;-62
2022/06/06 05:48:01;;;;;;;18.63;16.13;;;;;;;15.14;74.62;101186.16;3580075;40;19940;-62
2022/06/06 05:50:36;;;;;;;18.58;15.98;;;;;;;15.14;73.69;101183.44;3580245;40;20359;-62
2022/06/06 05:53:57;;;;;;;17.77;15.77;;;;;;;15.19;74.13;101187.53;3580508;40;20390;-62
2022/06/06 05:56:52;;;;;;;18.95;15.93;;;;;;;15.22;73.42;101176.47;3579464;40;20068;-62
2022/06/06 05:59:45;;;;;;;17.40;15.55;;;;;;;15.21;73.27;101182.00;3579707;40;20064;-62
2022/06/06 06:03:10;;;;;;;19.85;16.17;;;;;;;15.28;73.27;101185.97;3578871;40;20310;-62
2022/06/06 06:06:03;;;;;;;18.73;15.07;;;;;;;15.27;72.82;101185.09;3555090;40;20165;-62
2022/06/06 06:09:18;;;;;;;22.27;15.53;;;;;;;15.23;72.58;101178.19;3576558;40;20383;-63
2022/06/06 06:12:34;;;;;;;18.52;13.93;;;;;;;15.25;72.34;101187.03;3578975;40;20369;-62
2022/06/06 06:15:36;;;;;;;13.75;11.30;;;;;;;15.15;71.58;101169.78;3588455;40;20088;-62
2022/06/06 06:18:22;;;;;;;13.45;10.05;;;;;;;15.42;71.83;101193.91;3582094;40;20063;-62
2022/06/06 06:21:16;;;;;;;14.35;8.38;;;;;;;15.46;70.88;101195.41;3581212;40;20747;-62
2022/06/06 06:23:56;;;;;;;13.80;8.13;;;;;;;15.63;71.50;101195.94;3578761;40;20052;-61
2022/06/06 06:26:23;;;;;;;10.23;6.93;;;;;;;15.72;70.91;101196.13;3579681;40;20122;-61
2022/06/06 06:28:50;;;;;;;8.70;5.95;;;;;;;15.78;69.79;101203.78;3580625;40;20072;-63
2022/06/06 06:31:31;;;;;;;8.68;5.45;;;;;;;15.90;69.65;101204.69;3580716;40;20076;-62
2022/06/06 06:34:29;;;;;;;7.32;5.10;;;;;;;16.13;69.24;101215.56;3580774;40;20431;-61
2022/06/06 06:37:22;;;;;;;9.90;5.40;;;;;;;16.18;68.26;101207.94;3581084;40;20058;-62
2022/06/06 06:40:12;;;;;;;9.15;5.20;;;;;;;16.29;67.78;101204.34;3578687;40;20074;-62
2022/06/06 06:43:04;;;;;;;8.00;4.70;;;;;;;16.44;67.37;101204.00;3579468;40;20060;-61
2022/06/06 06:46:14;;;;;;;7.55;4.57;;;;;;;16.52;66.89;101195.22;3579442;40;20067;-64
2022/06/06 06:48:48;;;;;;;8.75;4.13;;;;;;;16.62;66.44;101214.38;3578607;40;20052;-62
2022/06/06 06:51:47;;;;;;;6.60;3.30;;;;;;;16.62;64.15;101226.06;3578777;40;20048;-61
2022/06/06 06:54:29;;;;;;;12.48;3.38;;;;;;;16.61;64.71;101227.03;3581140;40;20084;-62
2022/06/06 06:57:31;;;;;;;6.93;3.33;;;;;;;16.52;65.27;101194.34;3579603;40;20395;-62
2022/06/06 07:00:19;;;;;;;3.95;3.00;;;;;;;16.89;64.05;101216.69;3579354;40;20125;-62
2022/06/06 07:09:07;;;;;;;7.25;2.95;;;;;;;17.36;61.60;101211.88;3580894;40;20088;-63
2022/06/06 07:12:03;;;;;;;4.15;2.80;;;;;;;17.40;60.86;101211.47;3578411;40;20113;-62
2022/06/06 07:14:40;;;;;;;5.10;2.60;;;;;;;17.46;60.48;101220.97;3576461;40;20052;-61
2022/06/06 07:17:11;;;;;;;2.97;2.10;;;;;;;17.61;58.88;101216.94;3580257;40;20068;-62
2022/06/06 07:19:58;;;;;;;7.03;2.10;;;;;;;17.76;59.64;101225.66;3579937;40;20414;-62
2022/06/06 07:22:59;;;;;;;5.03;2.05;;;;;;;17.81;58.38;101223.44;3578545;40;20072;-61
2022/06/06 07:25:21;;;;;;;3.70;1.85;;;;;;;17.83;56.91;101226.03;3580733;40;20054;-62
2022/06/06 07:27:47;;;;;;;2.45;1.88;;;;;;;17.89;57.47;101221.91;3579514;40;20087;-62
2022/06/06 07:30:13;;;;;;;2.65;1.67;;;;;;;17.94;57.33;101227.81;3578376;40;20319;-62
2022/06/06 07:33:18;;;;;;;1.95;1.75;;;;;;;17.98;55.69;101224.72;3577219;40;20064;-62
2022/06/06 07:36:22;;;;;;;1.48;1.38;;;;;;;18.11;56.77;101235.38;3579598;40;20346;-62
2022/06/06 07:39:18;;;;;;;2.50;1.60;;;;;;;18.15;55.70;101246.84;3579297;40;20117;-62
2022/06/06 07:42:41;;;;;;;2.70;1.45;;;;;;;17.91;55.34;101241.69;3579240;40;20129;-62
2022/06/06 07:45:39;;;;;;;2.50;1.10;;;;;;;17.95;55.81;101237.69;3582525;40;20092;-63
2022/06/06 07:48:26;;;;;;;4.10;1.60;;;;;;;17.85;56.50;101245.78;3581168;40;20786;-62
2022/06/06 07:51:13;;;;;;;2.92;1.63;;;;;;;18.10;56.47;101250.81;3581056;40;20134;-63
2022/06/06 07:54:18;;;;;;;3.78;1.52;;;;;;;18.22;55.00;101238.00;3578750;40;20053;-62
2022/06/06 07:57:02;;;;;;;2.20;1.20;;;;;;;18.20;56.26;101244.56;3579682;40;20299;-62
2022/06/06 08:00:02;;;;;;;3.72;1.50;;;;;;;18.48;55.76;101232.97;3580763;40;20056;-63
2022/06/06 08:02:46;;;;;;;1.60;1.15;;;;;;;18.70;56.27;101242.81;3581792;40;20055;-60
2022/06/06 08:05:49;;;;;;;;;;;;;;;18.76;53.76;101239.59;3578205;40;20045;-62
2022/06/06 08:08:54;;;;;;;4.47;1.17;;;;;;;18.66;53.77;101235.09;3578724;40;20002;-60
2022/06/06 08:11:44;;;;;;;2.17;1.30;;;;;;;18.63;54.65;101236.22;3579689;40;20909;-61
2022/06/06 08:14:17;;;;;;;2.92;1.25;;;;;;;18.54;53.92;101234.31;3581882;40;20404;-63
2022/06/06 08:17:00;;;;;;;1.48;1.10;;;;;;;18.46;54.56;101231.41;3582096;40;20057;-63
2022/06/06 08:19:56;;;;;;;3.63;1.30;;;;;;;18.29;55.70;101232.88;3582030;40;20056;-63
2022/06/06 08:22:26;;;;;;;2.08;1.40;;;;;;;18.28;56.28;101240.19;3580202;40;20377;-61
2022/06/06 08:25:02;;;;;;;3.13;1.30;;;;;;;18.12;56.20;101225.34;3581452;40;20500;-61
2022/06/06 08:27:28;;;;;;;2.15;1.30;;;;;;;18.07;56.34;101225.75;3582733;40;20096;-61
2022/06/06 08:29:54;;;;;;;7.03;1.33;;;;;;;18.05;55.43;101236.78;3580332;40;21027;-64
2022/06/06 08:32:21;;;;;;;3.75;1.27;;;;;;;18.03;55.09;101237.91;3581576;40;20129;-63
2022/06/06 08:34:48;;;;;;;1.80;0.82;;;;;;;18.07;57.00;101225.75;3585118;39;20060;-63
2022/06/06 08:37:32;;;;;;;5.30;1.20;;;;;;;18.16;57.08;101227.66;3581045;40;20102;-64
2022/06/06 08:40:42;;;;;;;4.78;1.02;;;;;;;18.14;54.65;101228.78;3579986;40;20131;-62
2022/06/06 08:43:42;;;;;;;2.30;1.27;;;;;;;18.13;55.39;101222.50;3582795;40;20297;-62
2022/06/06 08:46:20;;;;;;;2.97;1.50;;;;;;;18.16;55.01;101210.47;3580874;40;20299;-61
2022/06/06 08:49:08;;;;;;;5.22;1.50;;;;;;;18.33;55.52;101218.91;3586904;39;20056;-62
2022/06/06 08:51:50;;;;;;;3.92;1.63;;;;;;;18.43;55.49;101218.09;3580538;40;20059;-61
2022/06/06 08:54:45;;;;;;;4.10;1.65;;;;;;;18.53;54.92;101219.84;3582020;40;20334;-61
2022/06/06 08:57:32;;;;;;;2.42;1.17;;;;;;;18.46;55.71;101224.13;3581777;40;20075;-62
2022/06/06 09:00:22;;;;;;;3.40;1.30;;;;;;;18.31;54.78;101214.56;3584207;40;20102;-65
2022/06/06 09:03:12;;;;;;;4.10;1.30;;;;;;;18.66;55.12;101207.84;3583134;40;20068;-62
2022/06/06 09:06:29;;;;;;;5.13;1.70;;;;;;;19.13;54.17;101208.16;3580697;40;20064;-61
2022/06/06 09:09:51;;;;;;;2.80;1.50;;;;;;;19.89;53.91;101203.72;3583105;40;20051;-61
2022/06/06 09:13:04;;;;;;;3.40;1.42;;;;;;;20.06;52.72;101209.44;3572096;40;20110;-60
2022/06/06 09:15:57;;;;;;;2.15;1.38;;;;;;;19.73;51.71;101208.03;3570625;40;20089;-62
2022/06/06 09:19:00;;;;;;;1.77;1.13;;;;;;;19.59;52.44;101207.44;3583144;40;20642;-61
2022/06/06 09:22:20;;;;;;;4.28;1.23;;;;;;;19.62;53.40;101207.16;3579683;40;20422;-62
2022/06/06 09:25:24;;;;;;;3.72;1.35;;;;;;;19.46;52.10;101213.19;3577812;40;20060;-61
2022/06/06 09:28:45;;;;;;;3.38;1.33;;;;;;;19.22;52.16;101208.16;3578988;40;20133;-63
2022/06/06 09:32:01;;;;;;;2.55;1.10;;;;;;;19.13;53.35;101189.06;3580279;40;20044;-63
2022/06/06 09:34:29;;;;;;;2.03;1.40;;;;;;;19.41;53.49;101192.78;3579250;40;20068;-62
2022/06/06 09:37:32;;;;;;;2.63;1.10;;;;;;;19.83;52.67;101198.00;3579729;40;20072;-61
2022/06/06 09:40:57;;;;;;;1.48;1.30;;;;;;;20.18;50.43;101194.59;3579882;40;20333;-63
2022/06/06 09:43:55;;;;;;;2.65;0.95;;;;;;;20.70;49.26;101200.44;3579983;40;20113;-62
2022/06/06 09:47:04;;;;;;;2.58;1.00;;;;;;;20.75;46.17;101198.13;3581043;40;20064;-63
2022/06/06 09:49:59;;;;;;;3.53;0.90;;;;;;;21.04;45.90;101184.28;3581685;40;20064;-60
2022/06/06 09:52:56;;;;;;;1.65;0.73;;;;;;;21.33;45.19;101185.94;3580082;40;20051;-61
2022/06/06 09:59:20;;;;;;;1.48;0.90;;;;;;;21.88;45.35;101177.53;3582557;40;20460;-61
2022/06/06 10:02:13;;;;;;;3.00;1.20;;;;;;;22.06;44.67;101184.88;3580840;40;20064;-62
2022/06/06 10:05:26;;;;;;;1.85;1.27;;;;;;;21.76;45.88;101178.84;3580902;40;20059;-61
2022/06/06 10:08:12;;;;;;;1.13;1.00;;;;;;;21.38;45.63;101180.91;3581092;40;20080;-61
2022/06/06 10:11:06;;;;;;;1.92;1.10;;;;;;;21.06;47.42;101175.94;3580813;40;20075;-61
2022/06/06 10:14:10;;;;;;;3.45;1.27;;;;;;;20.92;47.56;101174.59;3579410;40;20056;-60
2022/06/06 10:17:06;;;;;;;1.85;1.10;;;;;;;20.94;47.90;101161.63;3575418;40;20055;-61
2022/06/06 10:20:16;;;;;;;4.05;1.60;;;;;;;20.81;46.92;101162.00;3580642;40;20058;-61
2022/06/06 10:23:20;;;;;;;2.53;1.25;;;;;;;20.47;46.94;101161.72;3578075;40;20122;-61
2022/06/06 10:26:02;;;;;;;3.97;1.30;;;;;;;20.31;46.79;101164.25;3580978;40;20129;-61
2022/06/06 10:28:43;;;;;;;1.85;1.10;;;;;;;20.14;47.21;101155.84;3580494;40;20055;-60
2022/06/06 10:31:32;;;;;;;2.58;1.20;;;;;;;20.37;48.19;101160.91;3579281;40;20381;-61
2022/06/06 10:34:38;;;;;;;1.77;1.27;;;;;;;20.72;47.10;101157.47;3581076;40;20965;-61
2022/06/06 10:37:47;;;;;;;3.55;1.20;;;;;;;21.14;46.42;101156.03;3581453;40;20052;-62
2022/06/06 10:40:32;;;;;;;2.63;1.08;;;;;;;21.09;47.71;101162.84;3577949;40;20060;-61
2022/06/06 10:43:21;;;;;;;2.50;1.10;;;;;;;20.69;48.59;101173.31;3581286;40;20098;-61
2022/06/06 10:46:01;;;;;;;2.75;1.23;;;;;;;20.91;48.73;101182.94;3580920;40;20062;-60
2022/06/06 10:48:49;;;;;;;1.27;1.00;;;;;;;21.05;48.10;101175.06;3578755;40;20056;-62
2022/06/06 10:51:42;;;;;;;2.95;1.30;;;;;;;21.28;47.82;101172.75;3579266;40;20083;-61
2022/06/06 10:54:45;;;;;;;1.77;1.02;;;;;;;21.52;48.68;101168.53;3581552;40;20052;-61
2022/06/06 10:58:07;;;;;;;2.25;0.90;;;;;;;22.02;45.58;101167.91;3577406;40;20058;-61
2022/06/06 11:01:30;;;;;;;3.13;0.98;;;;;;;22.25;43.72;101162.75;3578419;40;20062;-61
2022/06/06 11:04:36;;;;;;;1.77;1.00;;;;;;;22.22;44.50;101179.53;3579822;40;20125;-61
2022/06/06 11:07:51;;;;;;;2.15;0.93;;;;;;;22.36;43.83;101164.34;3582480;39;20063;-62
2022/06/06 11:10:49;;;;;;;1.60;1.00;;;;;;;22.74;42.45;101163.00;3580054;40;20051;-62
2022/06/06 11:14:07;;;;;;;6.88;1.20;;;;;;;22.46;41.62;101159.63;3582876;40;20097;-61
2022/06/06 11:17:19;;;;;;;3.80;0.90;;;;;;;22.12;42.02;101151.38;3580729;40;20047;-62
2022/06/06 11:20:40;;;;;;;1.40;0.73;;;;;;;22.19;42.61;101146.97;3580259;40;20071;-63
2022/06/06 11:23:28;;;;;;;3.00;1.00;;;;;;;22.17;41.50;101138.94;3579246;40;20418;-62
2022/06/06 11:26:22;;;;;;;1.95;0.88;;;;;;;22.09;43.37;101135.25;3581116;40;20059;-62
2022/06/06 11:29:10;;;;;;;3.72;1.15;;;;;;;22.17;44.72;101136.22;3580847;40;20754;-61
2022/06/06 11:32:16;;;;;;;2.47;0.85;;;;;;;22.37;41.18;101135.97;3578339;40;20052;-61
2022/06/06 11:35:20;;;;;;;0.93;0.82;;;;;;;22.23;42.60;101137.41;3580263;40;20079;-61
2022/06/06 11:38:32;;;;;;;2.92;0.88;;;;;;;22.56;41.77;101137.56;3580521;40;20060;-61
2022/06/06 11:41:52;;;;;;;1.52;1.17;;;;;;;22.69;41.92;101136.06;3582749;40;20091;-61
2022/06/06 11:45:14;;;;;;;1.73;0.80;;;;;;;22.36;43.06;101136.97;3581845;40;20052;-62
2022/06/06 11:48:01;;;;;;;2.47;0.82;;;;;;;22.13;44.00;101139.38;3582899;40;20126;-60
2022/06/06 11:51:35;;;;;;;2.33;0.80;;;;;;;21.85;42.08;101145.06;3582579;40;20051;-61
2022/06/06 11:54:25;;;;;;;1.50;0.80;;;;;;;21.54;42.99;101137.28;3583393;40;20053;-62
2022/06/06 11:57:42;;;;;;;3.90;1.20;;;;;;;21.38;43.33;101131.69;3583980;40;20406;-62
2022/06/06 12:00:41;;;;;;;2.33;0.85;;;;;;;21.28;44.73;101141.78;3586501;39;20046;-62
2022/06/06 12:04:02;;;;;;;1.15;0.70;;;;;;;21.09;44.18;101131.88;3590968;39;20298;-61
2022/06/06 12:07:01;;;;;;;2.97;0.70;;;;;;;20.86;44.19;101126.00;3581295;40;20114;-63
2022/06/06 12:09:45;;;;;;;1.83;0.70;;;;;;;20.72;44.52;101137.47;3582999;39;20090;-61
2022/06/06 12:13:08;;;;;;;3.67;0.88;;;;;;;20.46;45.87;101110.00;3583367;40;20060;-60
2022/06/06 12:16:16;;;;;;;21.67;14.90;;;;;;;20.58;46.02;101139.72;3588738;39;20117;-62
2022/06/06 12:19:39;;;;;;;3.38;1.17;;;;;;;20.71;45.85;101136.63;3582541;40;20061;-61
2022/06/06 12:22:30;;;;;;;2.17;0.73;;;;;;;20.77;46.44;101143.31;3591338;40;20060;-61
2022/06/06 12:25:32;;;;;;;2.38;0.80;;;;;;;20.88;45.71;101139.53;3583504;40;20100;-62
2022/06/06 12:28:40;;;;;;;3.13;0.88;;;;;;;20.78;44.57;101128.66;3584511;40;20056;-62
2022/06/06 12:31:36;;;;;;;2.63;1.02;;;;;;;20.56;45.38;101140.88;3584645;40;20082;-62
2022/06/06 12:34:04;;;;;;;3.60;1.00;;;;;;;20.44;46.17;101128.41;3580899;40;20063;-60
2022/06/06 12:37:11;;;;;;;2.33;1.00;;;;;;;20.22;46.45;101143.31;3580631;40;20082;-61
2022/06/06 12:40:03;;;;;;;0.95;0.60;;;;;;;20.02;47.15;101137.06;3580780;40;20056;-62
2022/06/06 12:42:56;;;;;;;2.22;1.15;;;;;;;19.90;47.15;101141.81;3581108;40;20044;-62
2022/06/06 12:45:43;;;;;;;1.92;0.93;;;;;;;19.82;47.72;101141.69;3589560;40;20060;-61
2022/06/06 12:49:02;;;;;;;2.65;1.10;;;;;;;19.77;47.58;101141.28;3584396;40;20045;-61
2022/06/06 12:51:53;;;;;;;6.47;1.65;;;;;;;19.66;48.20;101143.19;3564929;40;20056;-62
2022/06/06 12:57:50;;;;;;;1.30;0.82;;;;;;;19.43;49.31;101137.13;3580592;40;20088;-61
2022/06/06 13:03:44;;;;;;;1.58;1.17;;;;;;;19.21;50.55;101149.19;3583452;40;20092;-61
2022/06/06 13:06:31;;;;;;;3.47;1.38;;;;;;;19.08;51.56;101159.50;3580060;40;20053;-62
2022/06/06 13:09:51;;;;;;;2.55;1.27;;;;;;;18.90;52.37;101156.63;3582427;40;20056;-62
2022/06/06 13:12:40;;;;;;;2.72;1.00;;;;;;;18.74;52.58;101154.44;3575354;40;20056;-62
2022/06/06 13:15:51;;;;;;;3.55;1.20;;;;;;;18.66;53.67;101164.28;3580876;40;20125;-62
2022/06/06 13:18:52;;;;;;;1.70;0.90;;;;;;;18.59;54.67;101169.41;3587097;40;20068;-61
2022/06/06 13:21:43;;;;;;;5.07;1.30;;;;;;;18.49;54.51;101165.78;3580039;40;20056;-62